Time;durP1;ratioP1;P1;durP2;ratioP2;P2;SDS_P1;SDS_P2;PMS_P1;PMS_P2;Temp;Humidity;BMP_temperature;BMP_pressure;BME280_temperature;BME280_humidity;BME280_pressure;Samples;Min_cycle;Max_cycle;Signal;HPM_P1;HPM_P2
2022/11/07 00:01:48;;;;;;;;;;;7.80;99.90;;;;;;5084234;28;20244;-72
2022/11/07 00:04:13;;;;;;;;;;;7.90;99.90;;;;;;5084257;28;20137;-72
2022/11/07 00:06:39;;;;;;;;;;;7.90;99.90;;;;;;5101584;28;19983;-71
2022/11/07 00:09:05;;;;;;;;;;;7.90;99.90;;;;;;5102176;28;19943;-71
2022/11/07 00:11:30;;;;;;;;;;;7.90;99.90;;;;;;5084175;28;19915;-71
2022/11/07 00:13:56;;;;;;;;;;;8.00;99.90;;;;;;5084070;28;20099;-71
2022/11/07 00:16:22;;;;;;;;;;;8.00;99.90;;;;;;5083904;28;19923;-71
2022/11/07 00:18:47;;;;;;;;;;;8.00;99.90;;;;;;5084007;28;19955;-71
2022/11/07 00:21:13;;;;;;;;;;;8.00;99.90;;;;;;5101803;28;19977;-71
2022/11/07 00:23:39;;;;;;;;;;;8.00;99.90;;;;;;5084017;28;19908;-71
2022/11/07 00:26:07;;;;;;;;;;;8.00;99.90;;;;;;5083857;28;19908;-71
2022/11/07 00:28:33;;;;;;;;;;;8.10;99.90;;;;;;5084126;28;20111;-71
2022/11/07 00:30:59;;;;;;;;;;;8.10;99.90;;;;;;5083922;28;20279;-71
2022/11/07 00:33:24;;;;;;;;;;;8.10;99.90;;;;;;5083485;28;19978;-71
2022/11/07 00:35:50;;;;;;;;;;;8.10;99.90;;;;;;5101716;28;20197;-71
2022/11/07 00:38:16;;;;;;;;;;;8.20;99.90;;;;;;5100442;28;19912;-72
2022/11/07 00:40:41;;;;;;;;;;;8.20;99.90;;;;;;5101888;28;19953;-72
2022/11/07 00:43:07;;;;;;;;;;;8.20;99.90;;;;;;5083923;28;19916;-72
2022/11/07 00:45:33;;;;;;;;;;;8.20;99.90;;;;;;5101844;28;19908;-71
2022/11/07 00:47:58;;;;;;;;;;;8.20;99.90;;;;;;5066707;28;20312;-72
2022/11/07 00:50:24;;;;;;;;;;;8.20;99.90;;;;;;5101647;28;19916;-72
2022/11/07 00:52:49;;;;;;;;;;;8.30;99.90;;;;;;5101772;28;19923;-72
2022/11/07 00:55:15;;;;;;;;;;;8.30;99.90;;;;;;5087459;28;19954;-72
2022/11/07 00:57:41;;;;;;;;;;;8.30;99.90;;;;;;5104958;28;19912;-72
2022/11/07 01:00:07;;;;;;;;;;;8.30;99.90;;;;;;5105254;28;19997;-72
2022/11/07 01:02:33;;;;;;;;;;;8.30;99.90;;;;;;5087139;28;19994;-72
2022/11/07 01:05:11;;;;;;;;;;;8.30;99.90;;;;;;5104222;28;20207;-72
2022/11/07 01:07:37;;;;;;;;;;;8.30;99.90;;;;;;5088307;28;19908;-72
2022/11/07 01:10:05;;;;;;;;;;;8.40;99.90;;;;;;5087186;28;19979;-72
2022/11/07 01:12:32;;;;;;;;;;;8.40;99.90;;;;;;5070483;28;19949;-71
2022/11/07 01:14:58;;;;;;;;;;;8.50;99.90;;;;;;5069021;28;19909;-71
2022/11/07 01:17:24;;;;;;;;;;;8.50;99.90;;;;;;5084129;28;19973;-71
2022/11/07 01:19:49;;;;;;;;;;;8.40;99.90;;;;;;5066712;28;19924;-71
2022/11/07 01:22:15;;;;;;;;;;;8.40;99.90;;;;;;5066827;28;20095;-71
2022/11/07 01:24:41;;;;;;;;;;;8.40;99.90;;;;;;5084856;28;20198;-72
2022/11/07 01:27:07;;;;;;;;;;;8.40;99.90;;;;;;5084526;28;19908;-72
2022/11/07 01:29:32;;;;;;;;;;;8.40;99.90;;;;;;5066475;28;20165;-72
2022/11/07 01:31:58;;;;;;;;;;;8.40;99.90;;;;;;5085297;28;19953;-72
2022/11/07 01:34:24;;;;;;;;;;;8.40;99.90;;;;;;5086783;28;19916;-71
2022/11/07 01:36:49;;;;;;;;;;;8.40;99.90;;;;;;5104244;28;19923;-71
2022/11/07 01:39:15;;;;;;;;;;;8.40;99.90;;;;;;5104541;28;19916;-72
2022/11/07 01:41:41;;;;;;;;;;;8.50;99.90;;;;;;5104701;28;19990;-72
2022/11/07 01:44:06;;;;;;;;;;;8.50;99.90;;;;;;5086441;28;19981;-72
2022/11/07 01:46:39;;;;;;;;;;;8.50;99.90;;;;;;5104237;28;19916;-72
2022/11/07 01:49:18;;;;;;;;;;;8.50;99.90;;;;;;5104483;28;19916;-72
2022/11/07 01:51:56;;;;;;;;;;;8.50;99.90;;;;;;5086250;28;19985;-72
2022/11/07 01:54:25;;;;;;;;;;;8.50;99.90;;;;;;5104293;28;19970;-72
2022/11/07 01:56:50;;;;;;;;;;;8.50;99.90;;;;;;5086088;28;19946;-72
2022/11/07 01:59:17;;;;;;;;;;;8.50;99.90;;;;;;5086095;28;19912;-72
2022/11/07 02:01:43;;;;;;;;;;;8.60;99.90;;;;;;5086288;28;19908;-72
2022/11/07 02:04:09;;;;;;;;;;;8.60;99.90;;;;;;5068971;28;20065;-72
2022/11/07 02:06:58;;;;;;;;;;;8.60;99.90;;;;;;5085732;28;19961;-72
2022/11/07 02:09:24;;;;;;;;;;;8.50;99.90;;;;;;5086048;28;20134;-72
2022/11/07 02:11:50;;;;;;;;;;;8.50;99.90;;;;;;5086120;28;19951;-71
2022/11/07 02:14:16;;;;;;;;;;;8.50;99.90;;;;;;5085841;28;20092;-71
2022/11/07 02:16:42;;;;;;;;;;;8.50;99.90;;;;;;5085677;28;20115;-71
2022/11/07 02:19:12;;;;;;;;;;;8.50;99.90;;;;;;5068816;28;19927;-71
2022/11/07 02:22:07;;;;;;;;;;;8.50;99.90;;;;;;5085517;28;19909;-71
2022/11/07 02:24:33;;;;;;;;;;;8.60;99.90;;;;;;5078200;28;19908;-72
2022/11/07 02:27:00;;;;;;;;;;;8.60;99.90;;;;;;5085451;28;19908;-72
2022/11/07 02:29:25;;;;;;;;;;;8.60;99.90;;;;;;5085516;28;19949;-72
2022/11/07 02:32:08;;;;;;;;;;;8.60;99.90;;;;;;5085644;28;19908;-72
2022/11/07 02:34:33;;;;;;;;;;;8.60;99.90;;;;;;5103650;28;19908;-72
2022/11/07 02:36:59;;;;;;;;;;;8.60;99.90;;;;;;5084989;28;20205;-71
2022/11/07 02:39:25;;;;;;;;;;;8.60;99.90;;;;;;5103457;28;19908;-71
2022/11/07 02:41:51;;;;;;;;;;;8.60;99.90;;;;;;5102285;28;19916;-71
2022/11/07 02:44:16;;;;;;;;;;;8.60;99.90;;;;;;5103423;28;19920;-72
2022/11/07 02:46:42;;;;;;;;;;;8.70;99.90;;;;;;5103103;28;20202;-71
2022/11/07 02:49:08;;;;;;;;;;;8.70;99.90;;;;;;5102230;28;20115;-71
2022/11/07 02:51:33;;;;;;;;;;;8.70;99.90;;;;;;5103172;28;19943;-71
2022/11/07 02:53:59;;;;;;;;;;;8.70;99.90;;;;;;5102155;28;20226;-72
2022/11/07 02:56:25;;;;;;;;;;;8.70;99.90;;;;;;5084784;28;20181;-72
2022/11/07 02:58:53;;;;;;;;;;;8.70;99.90;;;;;;5102940;28;19912;-72
2022/11/07 03:01:19;;;;;;;;;;;8.70;99.90;;;;;;5102055;28;20245;-72
2022/11/07 03:03:46;;;;;;;;;;;8.70;99.90;;;;;;5085003;28;19908;-72
2022/11/07 03:06:20;;;;;;;;;;;8.70;99.90;;;;;;5084651;28;19916;-71
2022/11/07 03:08:46;;;;;;;;;;;8.70;99.90;;;;;;5084833;28;20200;-71
2022/11/07 03:11:11;;;;;;;;;;;8.70;99.90;;;;;;5084819;28;19937;-71
2022/11/07 03:13:37;;;;;;;;;;;8.70;99.90;;;;;;5084869;28;19984;-71
2022/11/07 03:16:07;;;;;;;;;;;8.70;99.90;;;;;;5100757;28;19914;-71
2022/11/07 03:18:33;;;;;;;;;;;8.70;99.90;;;;;;5102554;28;19958;-72
2022/11/07 03:20:59;;;;;;;;;;;8.70;99.90;;;;;;5084529;28;19912;-72
2022/11/07 03:23:25;;;;;;;;;;;8.70;99.90;;;;;;5101581;28;19935;-72
2022/11/07 03:25:50;;;;;;;;;;;8.70;99.90;;;;;;5102604;28;19966;-72
2022/11/07 03:28:16;;;;;;;;;;;8.70;99.90;;;;;;5084323;28;19916;-72
2022/11/07 03:30:42;;;;;;;;;;;8.70;99.90;;;;;;5102749;28;19915;-72
2022/11/07 03:33:07;;;;;;;;;;;8.70;99.90;;;;;;5102000;28;19930;-72
2022/11/07 03:35:33;;;;;;;;;;;8.70;99.90;;;;;;5101497;28;19923;-72
2022/11/07 03:37:59;;;;;;;;;;;8.70;99.90;;;;;;5101872;28;19912;-72
2022/11/07 03:40:24;;;;;;;;;;;8.70;99.90;;;;;;5101240;28;19939;-72
2022/11/07 03:42:50;;;;;;;;;;;8.80;99.90;;;;;;5102487;28;19915;-72
2022/11/07 03:45:16;;;;;;;;;;;8.80;99.90;;;;;;5102431;28;20273;-72
2022/11/07 03:47:42;;;;;;;;;;;8.80;99.90;;;;;;5084232;28;20114;-72
2022/11/07 03:50:09;;;;;;;;;;;8.80;99.90;;;;;;5084524;28;19912;-72
2022/11/07 03:52:34;;;;;;;;;;;8.80;99.90;;;;;;5084313;28;19908;-72
2022/11/07 03:55:00;;;;;;;;;;;8.80;99.90;;;;;;5102374;28;19923;-72
2022/11/07 03:57:26;;;;;;;;;;;8.80;99.90;;;;;;5067414;28;19920;-72
2022/11/07 03:59:51;;;;;;;;;;;8.80;99.90;;;;;;5084303;28;19923;-72
2022/11/07 04:02:17;;;;;;;;;;;8.80;99.90;;;;;;5067680;28;19908;-72
2022/11/07 04:04:43;;;;;;;;;;;8.90;99.90;;;;;;5084370;28;19915;-72
2022/11/07 04:07:08;;;;;;;;;;;8.90;99.90;;;;;;5083921;28;20191;-72
2022/11/07 04:09:34;;;;;;;;;;;9.00;99.90;;;;;;5084373;28;20114;-72
2022/11/07 04:17:28;;;;;;;;;;;9.00;99.90;;;;;;5101667;28;20118;-72
2022/11/07 04:19:54;;;;;;;;;;;9.00;99.90;;;;;;5102131;28;19909;-72
2022/11/07 04:22:23;;;;;;;;;;;9.00;99.90;;;;;;5100703;28;20195;-72
2022/11/07 04:24:49;;;;;;;;;;;9.10;99.90;;;;;;5100608;28;19908;-72
2022/11/07 04:30:17;;;;;;;;;;;9.20;99.90;;;;;;5090605;28;19953;-72
2022/11/07 04:32:53;;;;;;;;;;;9.20;99.90;;;;;;5105088;28;20254;-72
2022/11/07 04:35:20;;;;;;;;;;;9.30;99.90;;;;;;5087988;28;19908;-71
2022/11/07 04:37:46;;;;;;;;;;;9.30;99.90;;;;;;5087432;28;19919;-72
2022/11/07 04:40:11;;;;;;;;;;;9.40;99.90;;;;;;5087730;28;19915;-72
2022/11/07 04:42:37;;;;;;;;;;;9.30;99.90;;;;;;5104608;28;19908;-72
2022/11/07 04:45:03;;;;;;;;;;;9.30;99.90;;;;;;5087623;28;19908;-71
2022/11/07 04:47:29;;;;;;;;;;;9.30;99.90;;;;;;5070431;28;19983;-71
2022/11/07 04:49:55;;;;;;;;;;;9.20;99.90;;;;;;5105586;28;19908;-72
2022/11/07 04:52:20;;;;;;;;;;;9.20;99.90;;;;;;5104339;28;19994;-72
2022/11/07 04:54:46;;;;;;;;;;;9.20;99.90;;;;;;5105505;28;19961;-73
2022/11/07 04:57:12;;;;;;;;;;;9.20;99.90;;;;;;5087029;28;19908;-72
2022/11/07 04:59:37;;;;;;;;;;;9.10;99.90;;;;;;5105424;28;19983;-72
2022/11/07 05:02:03;;;;;;;;;;;9.10;99.90;;;;;;5105435;28;19915;-72
2022/11/07 05:04:29;;;;;;;;;;;9.10;99.90;;;;;;5104905;28;19940;-72
2022/11/07 05:06:54;;;;;;;;;;;9.10;99.90;;;;;;5086901;28;19908;-72
2022/11/07 05:09:20;;;;;;;;;;;9.00;99.90;;;;;;5105244;28;19908;-72
2022/11/07 05:11:46;;;;;;;;;;;9.00;99.90;;;;;;5105145;28;19922;-72
2022/11/07 05:14:12;;;;;;;;;;;9.00;99.90;;;;;;5087168;28;19916;-72
2022/11/07 05:16:38;;;;;;;;;;;9.00;99.90;;;;;;5104840;28;20229;-71
2022/11/07 05:19:03;;;;;;;;;;;8.90;99.90;;;;;;5104589;28;19920;-71
2022/11/07 05:21:29;;;;;;;;;;;9.00;99.90;;;;;;5104941;28;19953;-71
2022/11/07 05:23:55;;;;;;;;;;;9.00;99.90;;;;;;5104540;28;19918;-71
2022/11/07 05:26:20;;;;;;;;;;;8.90;99.90;;;;;;5104562;28;19912;-71
2022/11/07 05:28:46;;;;;;;;;;;8.90;99.90;;;;;;5103427;28;19923;-71
2022/11/07 05:31:15;;;;;;;;;;;8.90;99.90;;;;;;5086593;28;20111;-71
2022/11/07 05:33:41;;;;;;;;;;;8.90;99.90;;;;;;5084265;28;20215;-71
2022/11/07 05:36:39;;;;;;;;;;;8.90;99.90;;;;;;5069399;28;19912;-71
2022/11/07 05:39:05;;;;;;;;;;;8.90;99.90;;;;;;5095699;28;19985;-71
2022/11/07 05:41:31;;;;;;;;;;;8.90;99.90;;;;;;5100617;28;19916;-71
2022/11/07 05:43:56;;;;;;;;;;;9.00;99.90;;;;;;5104191;28;19916;-71
2022/11/07 05:46:22;;;;;;;;;;;9.00;99.90;;;;;;5120063;28;19916;-71
2022/11/07 05:48:49;;;;;;;;;;;9.00;99.90;;;;;;5070284;28;19912;-71
2022/11/07 05:51:15;;;;;;;;;;;9.00;99.90;;;;;;5069618;28;19915;-71
2022/11/07 05:53:41;;;;;;;;;;;9.00;99.90;;;;;;5104085;28;20200;-71
2022/11/07 05:56:06;;;;;;;;;;;9.00;99.90;;;;;;5103766;28;19916;-71
2022/11/07 05:58:32;;;;;;;;;;;9.00;99.90;;;;;;5069240;28;19979;-71
2022/11/07 06:01:00;;;;;;;;;;;9.00;99.90;;;;;;5104013;28;20263;-71
2022/11/07 06:03:26;;;;;;;;;;;9.00;99.90;;;;;;5103902;28;19947;-72
2022/11/07 06:05:51;;;;;;;;;;;9.00;99.90;;;;;;5104155;28;19939;-71
2022/11/07 06:08:17;;;;;;;;;;;9.00;99.90;;;;;;5103642;28;19908;-71
2022/11/07 06:10:43;;;;;;;;;;;8.90;99.90;;;;;;5085940;28;19908;-71
2022/11/07 06:13:13;;;;;;;;;;;8.90;99.90;;;;;;5103840;28;19908;-72
2022/11/07 06:15:40;;;;;;;;;;;8.90;99.90;;;;;;5103830;28;19975;-71
2022/11/07 06:18:07;;;;;;;;;;;9.00;99.90;;;;;;5085064;28;20239;-71
2022/11/07 06:20:33;;;;;;;;;;;9.00;99.90;;;;;;5081753;28;19912;-71
2022/11/07 06:23:03;;;;;;;;;;;9.00;99.90;;;;;;5083609;28;19916;-72
2022/11/07 06:25:29;;;;;;;;;;;9.00;99.90;;;;;;5085612;28;19916;-71
2022/11/07 06:28:02;;;;;;;;;;;9.10;99.90;;;;;;5085077;28;20357;-71
2022/11/07 06:30:28;;;;;;;;;;;9.10;99.90;;;;;;5082069;28;19927;-71
2022/11/07 06:32:54;;;;;;;;;;;9.10;99.90;;;;;;5083716;28;19912;-71
2022/11/07 06:35:19;;;;;;;;;;;9.10;99.90;;;;;;5089755;28;19908;-72
2022/11/07 06:37:45;;;;;;;;;;;9.20;99.90;;;;;;5084774;28;19942;-71
2022/11/07 06:40:11;;;;;;;;;;;9.20;99.90;;;;;;5098048;28;19983;-71
2022/11/07 06:42:37;;;;;;;;;;;9.20;99.90;;;;;;5095422;28;19912;-71
2022/11/07 06:45:03;;;;;;;;;;;9.20;99.90;;;;;;5087747;28;19916;-71
2022/11/07 06:47:28;;;;;;;;;;;9.30;99.90;;;;;;5096840;28;19979;-71
2022/11/07 06:49:54;;;;;;;;;;;9.30;99.90;;;;;;5102773;28;19915;-71
2022/11/07 06:52:20;;;;;;;;;;;9.20;99.90;;;;;;5103170;28;19908;-71
2022/11/07 06:54:46;;;;;;;;;;;9.20;99.90;;;;;;5103111;28;19916;-72
2022/11/07 06:57:11;;;;;;;;;;;9.20;99.90;;;;;;5118363;28;19916;-71
2022/11/07 06:59:37;;;;;;;;;;;9.20;99.90;;;;;;5102943;28;19915;-71
2022/11/07 07:02:03;;;;;;;;;;;9.10;99.90;;;;;;5102891;28;19912;-72
2022/11/07 07:04:28;;;;;;;;;;;9.10;99.90;;;;;;5085818;28;19915;-71
2022/11/07 07:06:54;;;;;;;;;;;9.10;99.90;;;;;;5084488;28;19931;-71
2022/11/07 07:09:19;;;;;;;;;;;9.10;99.90;;;;;;5102708;28;20202;-72
2022/11/07 07:11:45;;;;;;;;;;;9.20;99.90;;;;;;5102716;28;20126;-71
2022/11/07 07:14:11;;;;;;;;;;;9.10;99.90;;;;;;5084890;28;19916;-72
2022/11/07 07:16:37;;;;;;;;;;;9.20;99.90;;;;;;5084380;28;19908;-71
2022/11/07 07:19:04;;;;;;;;;;;9.20;99.90;;;;;;5083756;28;20305;-71
2022/11/07 07:21:30;;;;;;;;;;;9.20;99.90;;;;;;5102499;28;19908;-72
2022/11/07 07:23:55;;;;;;;;;;;9.20;99.90;;;;;;5101433;28;20123;-71
2022/11/07 07:26:21;;;;;;;;;;;9.20;99.90;;;;;;5102293;28;19938;-72
2022/11/07 07:28:47;;;;;;;;;;;9.20;99.90;;;;;;5102488;28;19915;-72
2022/11/07 07:31:13;;;;;;;;;;;9.20;99.90;;;;;;5102557;28;19915;-72
2022/11/07 07:33:43;;;;;;;;;;;9.20;99.90;;;;;;5101543;28;20118;-72
2022/11/07 07:36:08;;;;;;;;;;;9.20;99.90;;;;;;5102134;28;19908;-71
2022/11/07 07:38:34;;;;;;;;;;;9.20;99.90;;;;;;5084157;28;19959;-72
2022/11/07 07:41:00;;;;;;;;;;;9.20;99.90;;;;;;5102339;28;19908;-72
2022/11/07 07:43:26;;;;;;;;;;;9.20;99.90;;;;;;5084312;28;20226;-72
2022/11/07 07:45:52;;;;;;;;;;;9.20;99.90;;;;;;5084286;28;20169;-72
2022/11/07 07:48:17;;;;;;;;;;;9.30;99.90;;;;;;5083436;28;19912;-72
2022/11/07 07:50:43;;;;;;;;;;;9.20;99.90;;;;;;5067432;28;20316;-71
2022/11/07 07:53:09;;;;;;;;;;;9.30;99.90;;;;;;5084134;28;19970;-71
2022/11/07 07:55:34;;;;;;;;;;;9.30;99.90;;;;;;5102310;28;19908;-72
2022/11/07 07:58:00;;;;;;;;;;;9.40;99.90;;;;;;5065717;28;19916;-72
2022/11/07 08:00:26;;;;;;;;;;;9.40;99.90;;;;;;5058245;28;19923;-72
2022/11/07 08:02:59;;;;;;;;;;;9.50;99.90;;;;;;5078168;28;19923;-72
2022/11/07 08:05:25;;;;;;;;;;;9.50;99.90;;;;;;5097318;28;19908;-72
2022/11/07 08:07:51;;;;;;;;;;;9.50;99.90;;;;;;5094727;28;20007;-72
2022/11/07 08:10:17;;;;;;;;;;;9.60;99.90;;;;;;5096586;28;19919;-72
2022/11/07 08:12:46;;;;;;;;;;;9.70;99.90;;;;;;5076808;28;20203;-72
2022/11/07 08:15:13;;;;;;;;;;;9.80;99.90;;;;;;5094660;28;19939;-72
2022/11/07 08:17:39;;;;;;;;;;;9.80;99.90;;;;;;5078119;28;19916;-71
2022/11/07 08:20:06;;;;;;;;;;;9.90;99.90;;;;;;5059980;28;19947;-71
2022/11/07 08:22:31;;;;;;;;;;;10.00;99.90;;;;;;5076981;28;19923;-72
2022/11/07 08:24:57;;;;;;;;;;;10.10;99.90;;;;;;5096355;28;19908;-72
2022/11/07 08:27:23;;;;;;;;;;;10.20;99.90;;;;;;5094427;28;19935;-69
2022/11/07 08:29:48;;;;;;;;;;;10.20;99.90;;;;;;5080416;28;19908;-71
2022/11/07 08:32:14;;;;;;;;;;;10.30;99.90;;;;;;5098913;28;19932;-72
2022/11/07 08:34:40;;;;;;;;;;;10.40;99.90;;;;;;5076197;28;19917;-71
2022/11/07 08:37:06;;;;;;;;;;;10.50;99.90;;;;;;5060315;28;20018;-71
2022/11/07 08:39:32;;;;;;;;;;;10.60;99.90;;;;;;5072778;28;19912;-71
2022/11/07 08:41:57;;;;;;;;;;;10.70;99.90;;;;;;5085302;28;19908;-70
2022/11/07 08:44:23;;;;;;;;;;;10.80;99.90;;;;;;5085255;28;19908;-72
2022/11/07 08:46:49;;;;;;;;;;;10.90;99.90;;;;;;5084754;28;19918;-74
2022/11/07 08:49:14;;;;;;;;;;;10.90;99.90;;;;;;5100714;28;20207;-74
2022/11/07 08:51:40;;;;;;;;;;;10.90;99.90;;;;;;5094812;28;19916;-70
2022/11/07 08:54:06;;;;;;;;;;;11.00;99.90;;;;;;5077356;28;19920;-73
2022/11/07 08:56:32;;;;;;;;;;;11.00;99.90;;;;;;5058892;28;19916;-74
2022/11/07 08:58:58;;;;;;;;;;;11.10;99.90;;;;;;5060462;28;19920;-74
2022/11/07 09:01:24;;;;;;;;;;;11.10;99.90;;;;;;5060159;28;19918;-74
2022/11/07 09:03:50;;;;;;;;;;;11.10;99.90;;;;;;5061605;28;20102;-74
2022/11/07 09:06:15;;;;;;;;;;;11.10;99.90;;;;;;5103779;28;19947;-74
2022/11/07 09:08:41;;;;;;;;;;;11.10;99.90;;;;;;5104049;28;20211;-74
2022/11/07 09:11:07;;;;;;;;;;;11.20;99.90;;;;;;5087254;28;20199;-74
2022/11/07 09:13:33;;;;;;;;;;;11.30;99.90;;;;;;5104096;28;19930;-73
2022/11/07 09:15:59;;;;;;;;;;;11.30;99.90;;;;;;5086652;28;19916;-74
2022/11/07 09:18:27;;;;;;;;;;;11.30;99.90;;;;;;5086488;28;19916;-74
2022/11/07 09:20:53;;;;;;;;;;;11.30;99.90;;;;;;5103837;28;19974;-74
2022/11/07 09:23:19;;;;;;;;;;;11.40;99.90;;;;;;5105040;28;20207;-73
2022/11/07 09:25:45;;;;;;;;;;;11.40;99.90;;;;;;5103828;28;19915;-73
2022/11/07 09:28:10;;;;;;;;;;;11.50;99.90;;;;;;5070933;28;19915;-74
2022/11/07 09:30:36;;;;;;;;;;;11.60;99.90;;;;;;5104774;28;19975;-74
2022/11/07 09:33:02;;;;;;;;;;;11.80;99.90;;;;;;5086451;28;19912;-73
2022/11/07 09:35:27;;;;;;;;;;;11.90;99.90;;;;;;5104632;28;20215;-74
2022/11/07 09:37:53;;;;;;;;;;;12.10;99.90;;;;;;5103117;28;20005;-74
2022/11/07 09:40:18;;;;;;;;;;;12.30;99.90;;;;;;5104347;28;19914;-74
2022/11/07 09:42:47;;;;;;;;;;;12.50;99.90;;;;;;5104443;28;19908;-74
2022/11/07 09:45:13;;;;;;;;;;;12.70;99.90;;;;;;5086294;28;19947;-74
2022/11/07 09:47:50;;;;;;;;;;;12.80;99.90;;;;;;5086006;28;20112;-74
2022/11/07 09:50:35;;;;;;;;;;;13.00;99.90;;;;;;5086052;28;19914;-74
2022/11/07 09:53:34;;;;;;;;;;;13.10;99.90;;;;;;5086479;28;19916;-74
2022/11/07 09:56:02;;;;;;;;;;;13.20;99.90;;;;;;5087185;28;19908;-74
2022/11/07 09:58:45;;;;;;;;;;;13.40;99.90;;;;;;5086497;28;19912;-73
2022/11/07 10:01:16;;;;;;;;;;;13.50;99.90;;;;;;5104135;28;19969;-74
2022/11/07 10:03:41;;;;;;;;;;;13.70;99.90;;;;;;5085817;28;19923;-73
2022/11/07 10:06:14;;;;;;;;;;;13.90;99.90;;;;;;5084856;28;19963;-74
2022/11/07 10:08:52;;;;;;;;;;;14.10;99.90;;;;;;5065849;28;19919;-74
2022/11/07 10:11:21;;;;;;;;;;;14.20;99.90;;;;;;5083695;28;20188;-73
2022/11/07 10:14:12;;;;;;;;;;;14.40;99.90;;;;;;5083939;28;19908;-74
2022/11/07 10:16:46;;;;;;;;;;;14.60;99.90;;;;;;5083456;28;20199;-74
2022/11/07 10:19:27;;;;;;;;;;;14.70;99.90;;;;;;5065392;28;19920;-74
2022/11/07 10:22:19;;;;;;;;;;;14.80;99.90;;;;;;5083668;28;19935;-73
2022/11/07 10:25:12;;;;;;;;;;;15.00;99.90;;;;;;5074927;28;19913;-73
2022/11/07 10:27:38;;;;;;;;;;;15.20;99.90;;;;;;5083141;28;19916;-73
2022/11/07 10:30:22;;;;;;;;;;;15.20;99.90;;;;;;5065827;28;19909;-73
2022/11/07 10:33:20;;;;;;;;;;;15.30;99.90;;;;;;5069597;28;20103;-73
2022/11/07 10:35:49;;;;;;;;;;;15.50;99.90;;;;;;5102375;28;20126;-73
2022/11/07 10:38:25;;;;;;;;;;;15.80;99.90;;;;;;5103119;28;19912;-74
2022/11/07 10:40:50;;;;;;;;;;;16.10;99.90;;;;;;5069320;28;19908;-74
2022/11/07 10:43:32;;;;;;;;;;;16.20;99.90;;;;;;5082050;28;19974;-75
2022/11/07 10:46:00;;;;;;;;;;;16.10;99.90;;;;;;5076497;28;19916;-74
2022/11/07 10:48:28;;;;;;;;;;;15.90;99.90;;;;;;5074264;28;19908;-75
2022/11/07 10:50:54;;;;;;;;;;;15.80;99.90;;;;;;5075231;28;19954;-74
2022/11/07 10:53:20;;;;;;;;;;;15.70;99.90;;;;;;5075876;28;19919;-74
2022/11/07 10:55:47;;;;;;;;;;;15.70;99.90;;;;;;5074301;28;19924;-75
2022/11/07 10:58:22;;;;;;;;;;;15.80;99.90;;;;;;5074420;28;19965;-74
2022/11/07 11:01:07;;;;;;;;;;;16.00;99.90;;;;;;5056863;28;19989;-74
2022/11/07 11:03:43;;;;;;;;;;;16.10;99.90;;;;;;5075984;28;20107;-73
2022/11/07 11:06:32;;;;;;;;;;;16.20;99.90;;;;;;5050269;28;19920;-74
2022/11/07 11:08:58;;;;;;;;;;;16.20;99.90;;;;;;5064633;28;19908;-73
2022/11/07 11:11:29;;;;;;;;;;;16.10;99.90;;;;;;5064230;28;19955;-73
2022/11/07 11:14:14;;;;;;;;;;;16.00;99.90;;;;;;5064531;28;19912;-74
2022/11/07 11:16:41;;;;;;;;;;;15.80;99.90;;;;;;5081659;28;19947;-72
2022/11/07 11:19:20;;;;;;;;;;;15.60;99.90;;;;;;5081581;28;19925;-72
2022/11/07 11:21:46;;;;;;;;;;;15.40;99.90;;;;;;5051599;28;19913;-72
2022/11/07 11:24:16;;;;;;;;;;;15.30;99.90;;;;;;5048296;28;19939;-72
2022/11/07 11:26:42;;;;;;;;;;;15.20;99.90;;;;;;5048278;28;20204;-72
2022/11/07 11:29:17;;;;;;;;;;;15.10;99.90;;;;;;5064552;28;19913;-73
2022/11/07 11:31:45;;;;;;;;;;;15.10;99.90;;;;;;5065137;28;20122;-72
2022/11/07 11:34:16;;;;;;;;;;;15.30;99.90;;;;;;5049077;28;19928;-73
2022/11/07 11:36:46;;;;;;;;;;;15.40;99.90;;;;;;5063706;28;20131;-72
2022/11/07 11:39:36;;;;;;;;;;;15.60;99.90;;;;;;5048013;28;19928;-73
2022/11/07 11:42:03;;;;;;;;;;;15.80;99.90;;;;;;5064519;28;19983;-73
2022/11/07 11:44:31;;;;;;;;;;;15.80;99.90;;;;;;5082986;28;19912;-73
2022/11/07 11:47:03;;;;;;;;;;;15.90;99.90;;;;;;5102118;28;20115;-72
2022/11/07 11:49:58;;;;;;;;;;;16.00;99.90;;;;;;5101717;28;19943;-73
2022/11/07 11:52:24;;;;;;;;;;;16.10;99.90;;;;;;5050814;28;19912;-72
2022/11/07 11:54:51;;;;;;;;;;;16.20;99.90;;;;;;5047566;28;19912;-73
2022/11/07 11:57:22;;;;;;;;;;;16.10;99.90;;;;;;5063797;28;20154;-72
2022/11/07 11:59:57;;;;;;;;;;;16.10;99.90;;;;;;5064078;28;20226;-72
2022/11/07 12:03:17;;;;;;;;;;;16.10;99.90;;;;;;5082769;28;19975;-72
2022/11/07 12:06:04;;;;;;;;;;;16.20;99.90;;;;;;5079812;28;19988;-73
2022/11/07 12:08:58;;;;;;;;;;;16.20;99.90;;;;;;5079810;28;19916;-73
2022/11/07 12:11:45;;;;;;;;;;;16.30;99.90;;;;;;5097600;28;20119;-73
2022/11/07 12:14:29;;;;;;;;;;;16.30;99.90;;;;;;5102209;28;19908;-73
2022/11/07 12:17:16;;;;;;;;;;;16.30;99.90;;;;;;5083815;28;19908;-73
2022/11/07 12:19:49;;;;;;;;;;;16.40;99.90;;;;;;5101861;28;20038;-73
2022/11/07 12:22:34;;;;;;;;;;;16.60;99.90;;;;;;5079474;28;19916;-75
2022/11/07 12:25:15;;;;;;;;;;;17.00;99.90;;;;;;5072277;28;20180;-76
2022/11/07 12:27:41;;;;;;;;;;;17.10;99.90;;;;;;5080362;28;19954;-77
2022/11/07 12:30:29;;;;;;;;;;;17.40;99.90;;;;;;5081808;28;19916;-74
2022/11/07 12:33:04;;;;;;;;;;;17.60;99.90;;;;;;5060140;28;19908;-75
2022/11/07 12:35:43;;;;;;;;;;;17.80;99.90;;;;;;5101513;28;19908;-76
2022/11/07 12:38:41;;;;;;;;;;;17.70;99.90;;;;;;5101430;28;19965;-76
2022/11/07 12:41:39;;;;;;;;;;;17.60;99.90;;;;;;5068927;28;19954;-76
2022/11/07 12:44:13;;;;;;;;;;;17.50;99.90;;;;;;5083998;28;19908;-76
2022/11/07 12:46:58;;;;;;;;;;;17.20;99.90;;;;;;5083213;28;19912;-73
2022/11/07 12:49:46;;;;;;;;;;;17.30;99.90;;;;;;5086047;28;19942;-72
2022/11/07 12:52:34;;;;;;;;;;;17.30;99.90;;;;;;5105434;28;19916;-72
2022/11/07 12:55:06;;;;;;;;;;;17.20;99.90;;;;;;5087742;28;19950;-72
2022/11/07 12:57:33;;;;;;;;;;;17.00;99.90;;;;;;5086571;28;19922;-72
2022/11/07 13:00:17;;;;;;;;;;;16.80;99.90;;;;;;5104984;28;19953;-72
2022/11/07 13:02:42;;;;;;;;;;;16.60;99.90;;;;;;5070427;28;20233;-72
2022/11/07 13:05:34;;;;;;;;;;;17.10;99.90;;;;;;5104994;28;20227;-72
2022/11/07 13:08:30;;;;;;;;;;;18.20;99.90;;;;;;5080990;28;19908;-72
2022/11/07 13:11:12;;;;;;;;;;;19.60;99.90;;;;;;5060729;28;19916;-72
2022/11/07 13:13:51;;;;;;;;;;;21.10;99.90;;;;;;5087050;28;19908;-72
2022/11/07 13:16:24;;;;;;;;;;;21.40;99.90;;;;;;5070366;28;19908;-72
2022/11/07 13:18:49;;;;;;;;;;;21.40;99.90;;;;;;5104375;28;20253;-72
2022/11/07 13:21:15;;;;;;;;;;;20.90;99.90;;;;;;5087213;28;19908;-72
2022/11/07 13:23:40;;;;;;;;;;;20.10;99.90;;;;;;5104888;28;19923;-72
2022/11/07 13:26:06;;;;;;;;;;;19.30;99.90;;;;;;5086645;28;19916;-72
2022/11/07 13:28:42;;;;;;;;;;;18.50;99.90;;;;;;5103655;28;19915;-72
2022/11/07 13:31:36;;;;;;;;;;;18.00;99.90;;;;;;5104837;28;19930;-72
2022/11/07 13:34:17;;;;;;;;;;;17.40;99.90;;;;;;5103628;28;19931;-72
2022/11/07 13:36:43;;;;;;;;;;;17.00;99.90;;;;;;5104498;28;20084;-72
2022/11/07 13:39:09;;;;;;;;;;;16.50;99.90;;;;;;5086603;28;20150;-72
2022/11/07 13:41:35;;;;;;;;;;;16.20;99.90;;;;;;5069952;28;19908;-72
2022/11/07 13:44:02;;;;;;;;;;;15.90;99.90;;;;;;5086560;28;19908;-72
2022/11/07 13:46:38;;;;;;;;;;;15.70;99.90;;;;;;5104040;28;19915;-72
2022/11/07 13:49:16;;;;;;;;;;;15.30;99.90;;;;;;5086215;28;19908;-72
2022/11/07 13:51:44;;;;;;;;;;;15.10;99.90;;;;;;5103381;28;19912;-72
2022/11/07 13:54:16;;;;;;;;;;;15.00;99.90;;;;;;5086515;28;20107;-71
2022/11/07 13:57:10;;;;;;;;;;;14.90;99.90;;;;;;5104386;28;19919;-72
2022/11/07 13:59:43;;;;;;;;;;;14.70;99.90;;;;;;5103371;28;19920;-72
2022/11/07 14:02:22;;;;;;;;;;;14.70;99.90;;;;;;5102953;28;19908;-72
2022/11/07 14:04:55;;;;;;;;;;;14.60;99.90;;;;;;5085696;28;20202;-72
2022/11/07 14:07:21;;;;;;;;;;;14.60;99.90;;;;;;5103834;28;19919;-71
2022/11/07 14:09:49;;;;;;;;;;;14.50;99.90;;;;;;5085921;28;19916;-72
2022/11/07 14:12:17;;;;;;;;;;;14.50;99.90;;;;;;5085898;28;19912;-72
2022/11/07 14:14:43;;;;;;;;;;;14.50;99.90;;;;;;5086173;28;19908;-72
2022/11/07 14:17:16;;;;;;;;;;;14.60;99.90;;;;;;5102531;28;19908;-72
2022/11/07 14:19:41;;;;;;;;;;;14.60;99.90;;;;;;5085657;28;19986;-72
2022/11/07 14:22:23;;;;;;;;;;;14.60;99.90;;;;;;5103925;28;20115;-72
2022/11/07 14:24:52;;;;;;;;;;;14.70;99.90;;;;;;5069133;28;19922;-72
2022/11/07 14:27:19;;;;;;;;;;;14.70;99.90;;;;;;5085388;28;19908;-72
2022/11/07 14:29:58;;;;;;;;;;;14.70;99.90;;;;;;5103499;28;19908;-72
2022/11/07 14:32:24;;;;;;;;;;;14.70;99.90;;;;;;5103599;28;19908;-72
2022/11/07 14:34:51;;;;;;;;;;;14.50;99.90;;;;;;5085106;28;19935;-72
2022/11/07 14:37:19;;;;;;;;;;;14.30;99.90;;;;;;5103100;28;20226;-72
2022/11/07 14:39:45;;;;;;;;;;;14.20;99.90;;;;;;5103388;28;19919;-72
2022/11/07 14:42:16;;;;;;;;;;;14.20;99.90;;;;;;5103402;28;19967;-72
2022/11/07 14:44:44;;;;;;;;;;;14.10;99.90;;;;;;5085219;28;19920;-72
2022/11/07 14:47:16;;;;;;;;;;;14.00;99.90;;;;;;5085029;28;19908;-72